createdAt,value
2022-08-19T00:00:55.885Z,4.58
2022-08-19T00:06:05.621Z,4.58
2022-08-19T00:11:26.322Z,4.57
2022-08-19T00:16:27.195Z,4.57
2022-08-19T00:21:32.331Z,4.57
2022-08-19T00:26:41.448Z,4.57
2022-08-19T00:31:51.237Z,4.63
2022-08-19T00:37:00.360Z,4.63
2022-08-19T00:42:17.523Z,4.61
2022-08-19T00:47:20.949Z,4.61
2022-08-19T00:52:28.972Z,4.68
2022-08-19T00:57:39.407Z,4.68
2022-08-19T01:03:25.628Z,4.63
2022-08-19T01:08:36.018Z,4.63
2022-08-19T01:13:50.902Z,4.61
2022-08-19T01:19:01.298Z,4.61
2022-08-19T01:24:11.146Z,4.76
2022-08-19T01:29:21.321Z,4.76
2022-08-19T01:34:30.593Z,4.74
2022-08-19T01:39:41.253Z,4.74
2022-08-19T01:45:33.548Z,4.75
2022-08-19T01:50:22.884Z,4.75
2022-08-19T01:55:56.932Z,4.72
2022-08-19T02:01:12.487Z,4.72
2022-08-19T02:05:57.828Z,4.75
2022-08-19T02:10:39.533Z,4.75
2022-08-19T02:15:49.940Z,4.7
2022-08-19T02:20:59.053Z,4.7
2022-08-19T02:26:08.186Z,4.84
2022-08-19T02:31:17.309Z,4.84
2022-08-19T02:36:25.793Z,4.75
2022-08-19T02:41:38.742Z,4.74
2022-08-19T02:46:47.235Z,4.74
2022-08-19T02:51:57.619Z,4.8
2022-08-19T02:57:07.395Z,4.8
2022-08-19T03:02:17.773Z,4.75
2022-08-19T03:07:30.097Z,4.75
2022-08-19T03:13:05.432Z,4.73
2022-08-19T03:18:08.693Z,4.73
2022-08-19T03:23:17.299Z,4.74
2022-08-19T03:28:27.076Z,4.74
2022-08-19T03:33:36.814Z,4.78
2022-08-19T03:38:47.433Z,4.78
2022-08-19T03:43:58.894Z,4.86
2022-08-19T03:49:14.974Z,4.86
2022-08-19T03:54:20.332Z,4.82
2022-08-19T03:59:29.447Z,4.82
2022-08-19T04:04:38.610Z,4.86
2022-08-19T04:09:50.253Z,4.86
2022-08-19T04:14:58.733Z,4.83
2022-08-19T04:20:09.164Z,4.83
2022-08-19T04:25:19.525Z,4.86
2022-08-19T04:30:31.748Z,4.86
2022-08-19T04:35:41.545Z,4.84
2022-08-19T04:40:51.710Z,4.84
2022-08-19T04:46:01.394Z,4.81
2022-08-19T04:51:08.976Z,4.81
2022-08-19T04:56:22.560Z,4.86
2022-08-19T05:01:38.055Z,4.86
2022-08-19T05:07:05.149Z,4.98
2022-08-19T05:12:12.928Z,4.98
2022-08-19T05:17:38.196Z,5.03
2022-08-19T05:22:44.913Z,5.03
2022-08-19T05:28:00.776Z,5.16
2022-08-19T05:33:15.652Z,5.08
2022-08-19T05:38:30.536Z,5.08
2022-08-19T05:43:46.707Z,5.16
2022-08-19T05:49:02.114Z,5.16
2022-08-19T05:54:18.055Z,5.08
2022-08-19T05:59:39.174Z,5.08
2022-08-19T06:03:39.722Z,5.05
2022-08-19T06:08:48.170Z,5.05
2022-08-19T06:14:00.658Z,4.97
2022-08-19T06:19:07.104Z,4.97
2022-08-19T06:24:19.388Z,4.98
2022-08-19T06:29:28.499Z,4.98
2022-08-19T06:34:38.292Z,4.92
2022-08-19T06:39:47.755Z,4.92
2022-08-19T06:44:57.829Z,5.08
2022-08-19T06:50:11.965Z,5.08
2022-08-19T06:55:40.977Z,5.03
2022-08-19T07:00:50.730Z,5.03
2022-08-19T07:06:01.273Z,5.08
2022-08-19T07:11:11.390Z,5.08
2022-08-19T07:16:29.882Z,4.93
2022-08-19T07:21:29.783Z,4.93
2022-08-19T07:26:45.194Z,5
2022-08-19T07:31:51.736Z,5
2022-08-19T07:36:57.780Z,4.98
2022-08-19T07:42:05.617Z,4.98
2022-08-19T07:47:51.538Z,5
2022-08-19T07:52:28.974Z,5
2022-08-19T07:57:40.806Z,5.03
2022-08-19T08:02:56.694Z,5.03
2022-08-19T08:08:04.017Z,4.94
2022-08-19T08:13:13.537Z,5.05
2022-08-19T08:18:30.676Z,5.05
2022-08-19T08:23:30.736Z,5.07
2022-08-19T08:28:41.249Z,5.07
2022-08-19T08:33:58.574Z,4.87
2022-08-19T08:39:11.589Z,4.87
2022-08-19T08:44:22.173Z,4.8
2022-08-19T08:49:31.118Z,4.8
2022-08-19T08:54:56.082Z,4.85
2022-08-19T08:59:51.215Z,4.85
2022-08-19T09:05:02.584Z,4.89
2022-08-19T09:10:10.725Z,4.89
2022-08-19T09:15:36.982Z,4.99
2022-08-19T09:20:28.723Z,4.99
2022-08-19T09:25:40.669Z,5.06
2022-08-19T09:30:53.258Z,5.06
2022-08-19T09:36:04.051Z,5.03
2022-08-19T09:41:15.089Z,5.03
2022-08-19T09:46:30.631Z,5.01
2022-08-19T09:51:49.050Z,5.01
2022-08-19T09:57:01.579Z,5.37
2022-08-19T10:02:22.107Z,5.37
2022-08-19T10:07:36.692Z,5.57
2022-08-19T10:13:00.034Z,5.57
2022-08-19T10:18:03.656Z,5.64
2022-08-19T10:23:20.500Z,5.64
2022-08-19T10:28:35.989Z,5.04
2022-08-19T10:33:54.446Z,5.04
2022-08-19T10:39:21.980Z,5.04
2022-08-19T10:44:23.174Z,5.04
2022-08-19T10:48:24.507Z,5.18
2022-08-19T10:55:05.142Z,5.18
2022-08-19T11:00:18.878Z,5.07
2022-08-19T11:05:36.548Z,4.95
2022-08-19T11:09:19.499Z,4.95
2022-08-19T11:11:29.468Z,4.95
2022-08-19T11:14:36.344Z,4.91
2022-08-19T11:16:46.297Z,4.91
2022-08-19T11:19:53.780Z,4.91
2022-08-19T11:22:04.003Z,4.91
2022-08-19T11:26:38.221Z,4.95
2022-08-19T11:27:28.221Z,4.95
2022-08-19T11:32:07.843Z,4.95
2022-08-19T11:35:06.486Z,4.95
2022-08-19T11:40:15.840Z,4.93
2022-08-19T11:40:45.538Z,4.93
2022-08-19T11:45:34.917Z,4.85
2022-08-19T11:46:04.869Z,4.85
2022-08-19T11:50:52.334Z,4.85
2022-08-19T11:51:22.302Z,4.85
2022-08-19T11:56:09.778Z,4.99
2022-08-19T11:57:00.849Z,4.99
2022-08-19T12:02:11.378Z,4.99
2022-08-19T12:04:21.393Z,4.99
2022-08-19T12:07:32.032Z,5.52
2022-08-19T12:16:34.154Z,5.32
2022-08-19T12:19:23.020Z,5.32
2022-08-19T12:24:37.934Z,5.32
2022-08-19T12:25:27.932Z,5.32
2022-08-19T12:29:52.777Z,5.31
2022-08-19T12:30:42.777Z,5.31
2022-08-19T12:35:08.325Z,5.31
2022-08-19T12:35:58.319Z,5.31
2022-08-19T12:41:05.464Z,5.2
2022-08-19T12:41:55.287Z,5.2
2022-08-19T12:46:26.392Z,5.16
2022-08-19T12:52:30.901Z,5.16
2022-08-19T12:53:25.748Z,5.16
2022-08-19T12:58:35.059Z,5.1
2022-08-19T12:59:05.012Z,5.1
2022-08-19T13:03:52.501Z,5.1
2022-08-19T13:04:22.461Z,5.1
2022-08-19T13:09:10.576Z,5.08
2022-08-19T13:14:52.949Z,5.15
2022-08-19T13:17:13.113Z,5.15
2022-08-19T13:22:29.292Z,5.15
2022-08-19T13:23:19.292Z,5.15
2022-08-19T13:28:29.507Z,5
2022-08-19T13:28:47.410Z,5
2022-08-19T13:33:38.732Z,5
2022-08-19T13:34:08.699Z,5
2022-08-19T13:38:58.098Z,4.79
2022-08-19T13:39:28.060Z,4.79
2022-08-19T13:44:18.732Z,4.79
2022-08-19T13:50:11.377Z,4.82
2022-08-19T13:50:41.330Z,4.82
2022-08-19T13:55:47.396Z,4.82
2022-08-19T13:56:17.351Z,4.82
2022-08-19T14:01:07.469Z,4.82
2022-08-19T14:01:39.356Z,4.82
2022-08-19T14:06:33.806Z,4.78
2022-08-19T14:07:03.773Z,4.78
2022-08-19T14:11:51.867Z,4.78
2022-08-19T14:15:40.168Z,4.78
2022-08-19T14:20:48.766Z,4.73
2022-08-19T14:21:20.658Z,4.73
2022-08-19T14:26:17.778Z,4.8
2022-08-19T14:27:20.477Z,4.8
2022-08-19T14:32:23.147Z,4.8
2022-08-19T14:32:53.112Z,4.8
2022-08-19T14:37:57.500Z,4.79
2022-08-19T14:39:16.481Z,4.79
2022-08-19T14:44:26.421Z,4.79
2022-08-19T14:44:56.379Z,4.79
2022-08-19T14:49:50.423Z,4.8
2022-08-19T14:50:18.768Z,4.8
2022-08-19T14:55:07.945Z,4.8
2022-08-19T14:55:37.506Z,4.8
2022-08-19T15:00:23.219Z,4.71
2022-08-19T15:00:53.179Z,4.71
2022-08-19T15:06:03.704Z,4.73
2022-08-19T15:06:33.667Z,4.73
2022-08-19T15:11:21.156Z,4.73
2022-08-19T15:11:51.097Z,4.73
2022-08-19T15:16:42.491Z,4.69
2022-08-19T15:18:52.396Z,4.69
2022-08-19T15:22:39.452Z,4.69
2022-08-19T15:24:19.451Z,4.69
2022-08-19T15:27:57.529Z,4.62
2022-08-19T15:29:37.529Z,4.62
2022-08-19T15:34:02.903Z,4.62
2022-08-19T15:34:52.903Z,4.62
2022-08-19T15:39:17.454Z,4.56
2022-08-19T15:40:07.652Z,4.56
2022-08-19T15:44:31.510Z,4.56
2022-08-19T15:49:46.424Z,4.62
2022-08-19T15:50:36.416Z,4.62
2022-08-19T15:55:03.215Z,4.62
2022-08-19T15:55:54.383Z,4.62
2022-08-19T16:00:53.312Z,4.63
2022-08-19T16:06:54.280Z,4.63
2022-08-19T16:07:24.209Z,4.63
2022-08-19T16:12:25.790Z,4.63
2022-08-19T16:18:35.691Z,4.69
2022-08-19T16:19:05.654Z,4.69
2022-08-19T16:24:03.393Z,4.69
2022-08-19T16:25:00.182Z,4.69
2022-08-19T16:30:09.494Z,4.73
2022-08-19T16:32:19.411Z,4.73
2022-08-19T16:36:16.934Z,4.84
2022-08-19T16:37:56.926Z,4.84
2022-08-19T16:42:20.970Z,4.84
2022-08-19T16:43:10.967Z,4.84
2022-08-19T16:47:38.600Z,4.86
2022-08-19T16:48:28.600Z,4.86
2022-08-19T16:52:52.619Z,4.86
2022-08-19T16:59:05.792Z,4.82
2022-08-19T16:59:35.753Z,4.82
2022-08-19T17:04:35.379Z,4.82
2022-08-19T17:05:05.335Z,4.82
2022-08-19T17:09:55.579Z,4.81
2022-08-19T17:10:25.177Z,4.81
2022-08-19T17:15:14.116Z,4.81
2022-08-19T17:15:44.072Z,4.81
2022-08-19T17:20:37.938Z,4.72
2022-08-19T17:21:07.899Z,4.72
2022-08-19T17:25:54.718Z,4.72
2022-08-19T17:26:24.681Z,4.72
2022-08-19T17:31:13.465Z,4.77
2022-08-19T17:31:43.423Z,4.77
2022-08-19T17:36:33.486Z,4.7
2022-08-19T17:37:03.432Z,4.7
2022-08-19T17:42:05.891Z,4.7
2022-08-19T17:42:46.395Z,4.7
2022-08-19T17:47:56.747Z,4.73
2022-08-19T17:53:57.297Z,4.73
2022-08-19T17:54:40.055Z,4.73
2022-08-19T17:59:37.718Z,4.79
2022-08-19T18:06:59.364Z,4.79
2022-08-19T18:07:49.363Z,4.79
2022-08-19T18:12:14.263Z,4.82
2022-08-19T18:13:10.051Z,4.82
2022-08-19T18:17:29.128Z,4.84
2022-08-19T18:23:46.219Z,4.84
2022-08-19T18:29:14.414Z,4.81
2022-08-19T18:31:36.044Z,4.81
2022-08-19T18:36:14.897Z,4.81
2022-08-19T18:37:07.835Z,4.81
2022-08-19T18:42:16.506Z,4.9
2022-08-19T18:42:46.477Z,4.9
2022-08-19T18:47:37.787Z,4.84
2022-08-19T18:48:07.739Z,4.84
2022-08-19T18:52:55.871Z,4.84
2022-08-19T18:53:25.836Z,4.84
2022-08-19T18:58:12.656Z,4.81
2022-08-19T18:58:42.615Z,4.81
2022-08-19T19:03:44.178Z,4.81
2022-08-19T19:04:14.136Z,4.81
2022-08-19T19:09:03.554Z,4.86
2022-08-19T19:11:13.514Z,4.86
2022-08-19T19:16:08.774Z,4.86
2022-08-19T19:16:58.774Z,4.86
2022-08-19T19:21:09.896Z,4.7
2022-08-19T19:21:59.899Z,4.7
2022-08-19T19:26:26.088Z,4.7
2022-08-19T19:27:16.092Z,4.7
2022-08-19T19:31:40.924Z,4.73
2022-08-19T19:32:30.925Z,4.73
2022-08-19T19:36:58.373Z,4.73
2022-08-19T19:37:48.467Z,4.73
2022-08-19T19:42:20.275Z,4.76
2022-08-19T19:43:03.934Z,4.76
2022-08-19T19:47:29.412Z,4.85
2022-08-19T19:53:26.147Z,4.85
2022-08-19T19:54:48.083Z,4.85
2022-08-19T19:59:51.968Z,4.91
2022-08-19T20:00:35.849Z,4.91
2022-08-19T20:05:44.497Z,4.91
2022-08-19T20:06:14.459Z,4.91
2022-08-19T20:11:02.605Z,4.96
2022-08-19T20:11:32.538Z,4.96
2022-08-19T20:16:23.231Z,4.96
2022-08-19T20:16:53.194Z,4.96
2022-08-19T20:21:40.009Z,4.89
2022-08-19T20:24:16.125Z,4.89
2022-08-19T20:28:43.503Z,4.76
2022-08-19T20:30:21.015Z,4.76
2022-08-19T20:34:45.257Z,4.76
2022-08-19T20:35:35.381Z,4.76
2022-08-19T20:40:00.280Z,4.77
2022-08-19T20:45:28.061Z,4.77
2022-08-19T20:46:05.656Z,4.77
2022-08-19T20:50:30.622Z,4.7
2022-08-19T20:51:20.555Z,4.7
2022-08-19T20:55:46.736Z,4.7
2022-08-19T20:56:36.732Z,4.7
2022-08-19T21:01:02.266Z,4.72
2022-08-19T21:01:52.220Z,4.72
2022-08-19T21:06:19.072Z,4.72
2022-08-19T21:07:09.092Z,4.72
2022-08-19T21:11:32.616Z,4.7
2022-08-19T21:12:22.611Z,4.7
2022-08-19T21:16:47.537Z,4.7
2022-08-19T21:17:37.511Z,4.7
2022-08-19T21:22:03.017Z,4.63
2022-08-19T21:22:53.017Z,4.63
2022-08-19T21:27:18.527Z,4.63
2022-08-19T21:28:08.538Z,4.63
2022-08-19T21:33:07.171Z,4.61
2022-08-19T21:33:36.066Z,4.61
2022-08-19T21:38:23.551Z,4.65
2022-08-19T21:38:53.515Z,4.65
2022-08-19T21:43:42.257Z,4.65
2022-08-19T21:44:12.222Z,4.65
2022-08-19T21:49:01.753Z,4.62
2022-08-19T21:49:31.589Z,4.62
2022-08-19T21:54:20.411Z,4.62
2022-08-19T21:54:50.364Z,4.62
2022-08-19T21:59:44.435Z,4.63
2022-08-19T22:00:09.043Z,4.63
2022-08-19T22:04:55.873Z,4.63
2022-08-19T22:10:32.476Z,4.63
2022-08-19T22:15:39.896Z,4.61
2022-08-19T22:22:10.123Z,4.62
2022-08-19T22:32:29.015Z,4.63
2022-08-19T22:40:59.698Z,4.64
2022-08-19T22:46:17.972Z,4.64
2022-08-19T22:51:28.774Z,4.59
2022-08-19T22:57:19.522Z,4.59
2022-08-19T23:02:52.545Z,4.57
2022-08-19T23:07:53.551Z,4.57
2022-08-19T23:13:04.809Z,4.58
2022-08-19T23:17:30.295Z,4.58
2022-08-19T23:22:14.587Z,4.55
2022-08-19T23:27:24.645Z,4.55
2022-08-19T23:32:34.112Z,4.51
2022-08-19T23:37:45.139Z,4.51
2022-08-19T23:42:56.811Z,4.51
2022-08-19T23:48:07.223Z,4.53
2022-08-19T23:53:16.984Z,4.53
2022-08-19T23:58:30.504Z,4.67
